Time,TemperatureF,DewpointF,PressureIn,WindDirection,WindDirectionDegrees,WindSpeedMPH,WindSpeedGustMPH,Humidity,HourlyPrecipIn,Conditions,Clouds,dailyrainin,SoftwareType,DateUTC
2013-04-12 00:03:00,41.5,37.7,29.92,East,90,0.0,0.0,86,0.00,RA,,0.00,WeatherDisplay:10.37,2013-04-12 07:03:00,
2013-04-12 00:08:00,41.7,37.8,29.92,East,90,0.0,0.0,86,0.00,RA,,0.00,WeatherDisplay:10.37,2013-04-12 07:08:00,
2013-04-12 00:13:00,41.7,37.8,29.92,East,90,0.0,0.0,86,0.00,CLR,,0.00,WeatherDisplay:10.37,2013-04-12 07:13:00,
2013-04-12 00:18:00,41.7,37.8,29.91,East,90,0.0,0.0,86,0.00,CLR,,0.00,WeatherDisplay:10.37,2013-04-12 07:18:00,
2013-04-12 00:23:00,41.5,37.7,29.91,East,90,0.0,0.0,86,0.00,CLR,,0.00,WeatherDisplay:10.37,2013-04-12 07:23:00,
2013-04-12 00:28:00,41.5,37.7,29.91,East,90,0.0,0.0,86,0.00,CLR,,0.00,WeatherDisplay:10.37,2013-04-12 07:28:00,
2013-04-12 00:33:00,41.4,37.5,29.91,East,90,0.0,0.0,86,0.00,CLR,,0.00,WeatherDisplay:10.37,2013-04-12 07:33:00,
2013-04-12 00:38:00,41.2,37.3,29.91,East,90,0.0,0.0,86,0.00,CLR,,0.00,WeatherDisplay:10.37,2013-04-12 07:38:00,
2013-04-12 00:43:00,41.0,37.4,29.91,East,90,0.0,0.0,87,0.00,CLR,,0.00,WeatherDisplay:10.37,2013-04-12 07:43:00,
2013-04-12 00:48:00,40.8,37.3,29.91,East,90,0.0,0.0,87,0.00,CLR,,0.00,WeatherDisplay:10.37,2013-04-12 07:48:00,
2013-04-12 00:53:00,40.6,37.1,29.90,East,90,0.0,0.0,87,0.00,CLR,,0.00,WeatherDisplay:10.37,2013-04-12 07:53:00,
2013-04-12 00:58:00,40.3,36.7,29.90,East,90,0.0,0.0,87,0.00,CLR,,0.00,WeatherDisplay:10.37,2013-04-12 07:58:00,
2013-04-12 01:03:00,40.3,36.7,29.90,East,90,0.0,0.0,87,0.00,CLR,,0.00,WeatherDisplay:10.37,2013-04-12 08:03:00,
2013-04-12 01:08:00,40.3,36.7,29.90,East,90,0.0,0.0,87,0.00,CLR,,0.00,WeatherDisplay:10.37,2013-04-12 08:08:00,
2013-04-12 01:14:00,39.4,36.1,29.89,East,90,0.0,0.0,88,0.00,CLR,,0.00,WeatherDisplay:10.37,2013-04-12 08:14:00,
2013-04-12 01:20:00,39.4,35.8,29.89,East,90,0.0,0.0,87,0.00,CLR,,0.00,WeatherDisplay:10.37,2013-04-12 08:20:00,
2013-04-12 01:26:00,39.0,35.5,29.89,East,90,0.0,0.0,87,0.00,CLR,,0.00,WeatherDisplay:10.37,2013-04-12 08:26:00,
2013-04-12 01:32:00,38.8,35.6,29.90,East,90,0.0,0.0,88,0.00,CLR,,0.00,WeatherDisplay:10.37,2013-04-12 08:32:00,
2013-04-12 01:38:00,38.5,35.2,29.90,East,90,0.0,0.0,88,0.00,CLR,,0.00,WeatherDisplay:10.37,2013-04-12 08:38:00,
2013-04-12 01:43:00,38.3,35.1,29.90,East,90,0.0,0.0,88,0.00,CLR,,0.00,WeatherDisplay:10.37,2013-04-12 08:43:00,
2013-04-12 01:48:00,38.1,34.9,29.90,East,90,0.0,0.0,88,0.00,CLR,,0.00,WeatherDisplay:10.37,2013-04-12 08:48:00,
2013-04-12 01:53:00,38.1,35.2,29.89,East,90,0.0,0.0,89,0.00,CLR,,0.00,WeatherDisplay:10.37,2013-04-12 08:53:00,
2013-04-12 01:58:00,37.9,35.0,29.89,East,90,0.0,0.0,89,0.00,CLR,,0.00,WeatherDisplay:10.37,2013-04-12 08:58:00,
2013-04-12 02:03:00,37.9,35.0,29.89,East,90,0.0,0.0,89,0.00,CLR,,0.00,WeatherDisplay:10.37,2013-04-12 09:03:00,
2013-04-12 02:08:00,37.9,35.0,29.89,East,90,0.0,0.0,89,0.00,CLR,,0.00,WeatherDisplay:10.37,2013-04-12 09:08:00,
2013-04-12 02:13:00,37.9,35.0,29.89,East,90,0.0,0.0,89,0.00,CLR,,0.00,WeatherDisplay:10.37,2013-04-12 09:13:00,
2013-04-12 02:18:00,38.1,35.2,29.89,East,90,0.0,0.0,89,0.00,CLR,,0.00,WeatherDisplay:10.37,2013-04-12 09:18:00,
2013-04-12 02:23:00,38.3,35.3,29.89,East,90,0.0,0.0,89,0.00,CLR,,0.00,WeatherDisplay:10.37,2013-04-12 09:23:00,
2013-04-12 02:28:00,38.5,35.5,29.89,East,90,0.0,0.0,89,0.00,CLR,,0.00,WeatherDisplay:10.37,2013-04-12 09:28:00,
2013-04-12 02:33:00,38.8,35.9,29.89,East,90,0.0,0.0,89,0.00,CLR,,0.00,WeatherDisplay:10.37,2013-04-12 09:33:00,
2013-04-12 02:38:00,38.8,35.9,29.88,East,90,0.0,0.0,89,0.00,CLR,,0.00,WeatherDisplay:10.37,2013-04-12 09:38:00,
2013-04-12 02:43:00,38.8,35.9,29.88,East,90,0.0,0.0,89,0.00,CLR,,0.00,WeatherDisplay:10.37,2013-04-12 09:43:00,
2013-04-12 02:49:00,39.0,36.3,29.88,East,90,0.0,0.0,90,0.00,CLR,,0.00,WeatherDisplay:10.37,2013-04-12 09:49:00,
2013-04-12 02:54:00,39.0,36.3,29.88,East,90,0.0,0.0,90,0.00,CLR,,0.00,WeatherDisplay:10.37,2013-04-12 09:54:00,
2013-04-12 02:59:00,39.4,36.7,29.88,East,90,0.0,0.0,90,0.00,CLR,,0.00,WeatherDisplay:10.37,2013-04-12 09:59:00,
2013-04-12 03:04:00,39.4,36.7,29.88,East,90,0.0,0.0,90,0.00,CLR,,0.00,WeatherDisplay:10.37,2013-04-12 10:04:00,
2013-04-12 03:09:00,39.4,36.7,29.88,East,90,0.0,0.0,90,0.00,CLR,,0.00,WeatherDisplay:10.37,2013-04-12 10:09:00,
2013-04-12 03:14:00,39.6,36.9,29.88,East,90,0.0,0.0,90,0.00,CLR,,0.00,WeatherDisplay:10.37,2013-04-12 10:14:00,
2013-04-12 03:19:00,39.6,36.9,29.88,East,90,0.0,0.0,90,0.00,CLR,,0.00,WeatherDisplay:10.37,2013-04-12 10:19:00,
2013-04-12 03:24:00,39.7,37.0,29.88,SE,135,0.0,0.0,90,0.00,CLR,,0.00,WeatherDisplay:10.37,2013-04-12 10:24:00,
2013-04-12 03:29:00,39.9,37.2,29.88,SSE,158,0.0,0.0,90,0.00,CLR,,0.00,WeatherDisplay:10.37,2013-04-12 10:29:00,
2013-04-12 03:34:00,39.9,37.2,29.88,SSE,158,0.0,0.0,90,0.00,CLR,,0.00,WeatherDisplay:10.37,2013-04-12 10:34:00,
2013-04-12 03:39:00,40.1,37.4,29.88,SSE,158,0.0,0.0,90,0.00,CLR,,0.00,WeatherDisplay:10.37,2013-04-12 10:39:00,
2013-04-12 03:44:00,40.3,37.6,29.87,South,180,0.0,0.0,90,0.00,CLR,,0.00,WeatherDisplay:10.37,2013-04-12 10:44:00,
2013-04-12 03:49:00,40.3,37.6,29.87,South,180,0.0,0.0,90,0.00,CLR,,0.00,WeatherDisplay:10.37,2013-04-12 10:49:00,
2013-04-12 03:54:00,40.5,37.8,29.87,SSE,158,0.0,0.0,90,0.00,CLR,,0.00,WeatherDisplay:10.37,2013-04-12 10:54:00,
2013-04-12 03:59:00,40.5,37.8,29.87,SSE,158,0.0,0.0,90,0.00,CLR,,0.00,WeatherDisplay:10.37,2013-04-12 10:59:00,
2013-04-12 04:04:00,40.5,37.8,29.87,SSE,158,0.0,0.0,90,0.00,CLR,,0.00,WeatherDisplay:10.37,2013-04-12 11:04:00,
2013-04-12 04:09:00,40.5,37.8,29.87,SSE,158,0.0,0.0,90,0.00,CLR,,0.00,WeatherDisplay:10.37,2013-04-12 11:09:00,
2013-04-12 04:14:00,40.5,37.8,29.87,SSE,158,0.0,0.0,90,0.00,CLR,,0.00,WeatherDisplay:10.37,2013-04-12 11:14:00,
2013-04-12 04:19:00,40.6,37.9,29.87,SSE,158,0.0,0.0,90,0.00,CLR,,0.00,WeatherDisplay:10.37,2013-04-12 11:19:00,
2013-04-12 04:24:00,40.5,37.8,29.87,SE,135,0.0,0.0,90,0.00,CLR,,0.00,WeatherDisplay:10.37,2013-04-12 11:24:00,
2013-04-12 04:29:00,40.5,37.5,29.86,SE,135,0.0,0.0,89,0.00,CLR,,0.00,WeatherDisplay:10.37,2013-04-12 11:29:00,
2013-04-12 04:34:00,40.5,37.5,29.85,SE,135,0.0,0.0,89,0.00,CLR,,0.00,WeatherDisplay:10.37,2013-04-12 11:34:00,
2013-04-12 04:39:00,40.3,37.3,29.85,SE,135,0.0,0.0,89,0.00,CLR,,0.00,WeatherDisplay:10.37,2013-04-12 11:39:00,
2013-04-12 04:44:00,40.1,37.1,29.85,SE,135,0.0,0.0,89,0.00,CLR,,0.00,WeatherDisplay:10.37,2013-04-12 11:44:00,
2013-04-12 04:49:00,39.9,36.9,29.85,SE,135,0.0,0.0,89,0.00,CLR,,0.00,WeatherDisplay:10.37,2013-04-12 11:49:00,
2013-04-12 04:54:00,39.9,36.9,29.84,SE,135,0.0,0.0,89,0.00,CLR,,0.00,WeatherDisplay:10.37,2013-04-12 11:54:00,
2013-04-12 04:59:00,39.9,36.9,29.84,SE,135,0.0,0.0,89,0.00,CLR,,0.00,WeatherDisplay:10.37,2013-04-12 11:59:00,
2013-04-12 05:04:00,39.9,36.9,29.84,SE,135,0.0,0.0,89,0.00,CLR,,0.00,WeatherDisplay:10.37,2013-04-12 12:04:00,
2013-04-12 05:09:00,39.9,36.9,29.84,SE,135,0.0,0.0,89,0.00,CLR,,0.00,WeatherDisplay:10.37,2013-04-12 12:09:00,
2013-04-12 05:14:00,39.7,36.8,29.84,SE,135,0.0,0.0,89,0.00,CLR,,0.00,WeatherDisplay:10.37,2013-04-12 12:14:00,
2013-04-12 05:19:00,39.7,36.8,29.83,SE,135,0.0,0.0,89,0.00,CLR,,0.00,WeatherDisplay:10.37,2013-04-12 12:19:00,
2013-04-12 05:24:00,39.7,36.8,29.82,SE,135,0.0,0.0,89,0.00,CLR,,0.00,WeatherDisplay:10.37,2013-04-12 12:24:00,
2013-04-12 05:29:00,39.6,36.6,29.82,SE,135,0.0,0.0,89,0.00,CLR,,0.00,WeatherDisplay:10.37,2013-04-12 12:29:00,
2013-04-12 05:34:00,39.4,36.4,29.82,SE,135,0.0,0.0,89,0.00,CLR,,0.00,WeatherDisplay:10.37,2013-04-12 12:34:00,
2013-04-12 05:39:00,39.4,36.4,29.82,SE,135,0.0,0.0,89,0.00,CLR,,0.00,WeatherDisplay:10.37,2013-04-12 12:39:00,
2013-04-12 05:44:00,39.0,36.1,29.81,SE,135,0.0,0.0,89,0.00,CLR,,0.00,WeatherDisplay:10.37,2013-04-12 12:44:00,
2013-04-12 05:49:00,38.8,35.9,29.81,SE,135,0.0,0.0,89,0.00,CLR,,0.00,WeatherDisplay:10.37,2013-04-12 12:49:00,
2013-04-12 05:54:00,38.7,35.7,29.81,SE,135,0.0,0.0,89,0.00,CLR,,0.00,WeatherDisplay:10.37,2013-04-12 12:54:00,
2013-04-12 05:59:00,38.3,35.3,29.81,SE,135,0.0,0.0,89,0.00,CLR,,0.00,WeatherDisplay:10.37,2013-04-12 12:59:00,
2013-04-12 06:04:00,38.1,35.2,29.80,SE,135,0.0,0.0,89,0.00,CLR,,0.00,WeatherDisplay:10.37,2013-04-12 13:04:00,
2013-04-12 06:09:00,37.9,35.0,29.80,SE,135,0.0,0.0,89,0.00,CLR,,0.00,WeatherDisplay:10.37,2013-04-12 13:09:00,
2013-04-12 06:14:00,37.8,35.1,29.80,SE,135,0.0,0.0,90,0.00,CLR,,0.00,WeatherDisplay:10.37,2013-04-12 13:14:00,
2013-04-12 06:19:00,37.6,34.9,29.80,SE,135,0.0,0.0,90,0.00,CLR,,0.00,WeatherDisplay:10.37,2013-04-12 13:19:00,
2013-04-12 06:24:00,37.6,34.9,29.80,SE,135,0.0,0.0,90,0.00,CLR,,0.00,WeatherDisplay:10.37,2013-04-12 13:24:00,
2013-04-12 06:29:00,37.6,34.9,29.79,SE,135,0.0,0.0,90,0.00,CLR,,0.00,WeatherDisplay:10.37,2013-04-12 13:29:00,
2013-04-12 06:34:00,37.6,34.9,29.79,SE,135,0.0,0.0,90,0.00,CLR,,0.00,WeatherDisplay:10.37,2013-04-12 13:34:00,
2013-04-12 06:39:00,37.6,34.9,29.79,SE,135,0.0,0.0,90,0.00,CLR,,0.00,WeatherDisplay:10.37,2013-04-12 13:39:00,
2013-04-12 06:44:00,37.6,34.9,29.79,SE,135,0.0,0.0,90,0.00,CLR,,0.00,WeatherDisplay:10.37,2013-04-12 13:44:00,
2013-04-12 06:49:00,37.6,34.9,29.80,SE,135,0.0,0.0,90,0.00,CLR,,0.00,WeatherDisplay:10.37,2013-04-12 13:49:00,
2013-04-12 06:54:00,37.6,34.9,29.79,SE,135,0.0,0.0,90,0.00,CLR,,0.00,WeatherDisplay:10.37,2013-04-12 13:54:00,
2013-04-12 06:59:00,37.9,35.5,29.79,SE,135,0.0,0.0,91,0.00,CLR,,0.00,WeatherDisplay:10.37,2013-04-12 13:59:00,
2013-04-12 07:04:00,37.9,35.5,29.80,SE,135,0.0,0.0,91,0.00,CLR,,0.00,WeatherDisplay:10.37,2013-04-12 14:04:00,
2013-04-12 07:09:00,38.1,35.7,29.79,SE,135,0.0,0.0,91,0.00,CLR,,0.00,WeatherDisplay:10.37,2013-04-12 14:09:00,
2013-04-12 07:14:00,38.1,35.7,29.79,SE,135,0.0,0.0,91,0.00,CLR,,0.00,WeatherDisplay:10.37,2013-04-12 14:14:00,
2013-04-12 07:19:00,38.3,35.9,29.80,SE,135,0.0,0.0,91,0.00,CLR,,0.00,WeatherDisplay:10.37,2013-04-12 14:19:00,
2013-04-12 07:24:00,38.5,36.1,29.79,SE,135,0.0,0.0,91,0.00,CLR,,0.00,WeatherDisplay:10.37,2013-04-12 14:24:00,
2013-04-12 07:29:00,38.5,36.1,29.78,SE,135,0.0,0.0,91,0.00,CLR,,0.00,WeatherDisplay:10.37,2013-04-12 14:29:00,
2013-04-12 07:34:00,38.8,36.4,29.78,SE,135,0.0,0.0,91,0.00,CLR,,0.00,WeatherDisplay:10.37,2013-04-12 14:34:00,
2013-04-12 07:39:00,39.0,36.6,29.79,SE,135,0.0,0.0,91,0.00,CLR,,0.00,WeatherDisplay:10.37,2013-04-12 14:39:00,
2013-04-12 07:44:00,39.2,36.8,29.79,SE,135,0.0,0.0,91,0.00,CLR,,0.00,WeatherDisplay:10.37,2013-04-12 14:44:00,
2013-04-12 07:49:00,39.4,37.0,29.78,SE,135,0.0,0.0,91,0.00,CLR,,0.00,WeatherDisplay:10.37,2013-04-12 14:49:00,
2013-04-12 07:54:00,39.6,37.2,29.78,SE,135,0.0,0.0,91,0.00,CLR,,0.00,WeatherDisplay:10.37,2013-04-12 14:54:00,
2013-04-12 07:59:00,39.9,37.5,29.77,ESE,112,0.0,0.0,91,0.00,CLR,,0.00,WeatherDisplay:10.37,2013-04-12 14:59:00,
2013-04-12 08:04:00,40.6,38.2,29.77,SE,135,0.0,0.0,91,0.00,CLR,,0.00,WeatherDisplay:10.37,2013-04-12 15:04:00,
2013-04-12 08:09:00,41.2,38.8,29.77,ENE,68,0.0,0.0,91,0.00,CLR,,0.00,WeatherDisplay:10.37,2013-04-12 15:09:00,
2013-04-12 08:14:00,41.9,39.5,29.76,SSW,202,0.0,0.0,91,0.00,CLR,,0.00,WeatherDisplay:10.37,2013-04-12 15:14:00,
2013-04-12 08:19:00,42.4,39.7,29.76,SE,135,0.0,0.0,90,0.00,CLR,,0.00,WeatherDisplay:10.37,2013-04-12 15:19:00,
2013-04-12 08:24:00,42.8,39.8,29.76,SW,225,1.2,1.2,89,0.00,CLR,,0.00,WeatherDisplay:10.37,2013-04-12 15:24:00,
2013-04-12 08:29:00,43.3,40.0,29.76,SW,225,0.0,0.0,88,0.00,CLR,,0.00,WeatherDisplay:10.37,2013-04-12 15:29:00,
2013-04-12 08:34:00,43.5,39.9,29.76,SSE,158,0.0,0.0,87,0.00,CLR,,0.00,WeatherDisplay:10.37,2013-04-12 15:34:00,
2013-04-12 08:39:00,44.1,40.4,29.76,SW,225,0.0,0.0,87,0.00,CLR,,0.00,WeatherDisplay:10.37,2013-04-12 15:39:00,
2013-04-12 08:44:00,44.4,40.5,29.76,SW,225,0.0,0.0,86,0.00,CLR,,0.00,WeatherDisplay:10.37,2013-04-12 15:44:00,
2013-04-12 08:49:00,45.0,41.0,29.77,SSW,202,0.0,0.0,86,0.00,CLR,,0.00,WeatherDisplay:10.37,2013-04-12 15:49:00,
2013-04-12 08:54:00,45.1,40.9,29.77,SSW,202,0.0,0.0,85,0.00,CLR,,0.00,WeatherDisplay:10.37,2013-04-12 15:54:00,
2013-04-12 08:59:00,45.3,40.8,29.76,SW,225,0.0,0.0,84,0.00,CLR,,0.00,WeatherDisplay:10.37,2013-04-12 15:59:00,
2013-04-12 09:04:00,45.5,40.9,29.76,South,180,1.2,1.2,84,0.00,CLR,,0.00,WeatherDisplay:10.37,2013-04-12 16:04:00,
2013-04-12 09:09:00,45.5,40.6,29.76,South,180,2.3,2.3,83,0.00,CLR,,0.00,WeatherDisplay:10.37,2013-04-12 16:09:00,
2013-04-12 09:14:00,45.7,40.5,29.75,East,90,2.3,2.3,82,0.00,CLR,,0.00,WeatherDisplay:10.37,2013-04-12 16:14:00,
2013-04-12 09:19:00,46.2,41.0,29.75,SSE,158,2.3,2.3,82,0.00,CLR,,0.00,WeatherDisplay:10.37,2013-04-12 16:19:00,
2013-04-12 09:24:00,46.2,40.7,29.75,ESE,112,0.0,0.0,81,0.00,CLR,,0.00,WeatherDisplay:10.37,2013-04-12 16:24:00,
2013-04-12 09:29:00,46.8,41.2,29.75,SE,135,0.0,0.0,81,0.00,CLR,,0.00,WeatherDisplay:10.37,2013-04-12 16:29:00,
2013-04-12 09:34:00,47.1,41.3,29.74,SE,135,0.0,0.0,80,0.00,CLR,,0.00,WeatherDisplay:10.37,2013-04-12 16:34:00,
2013-04-12 09:39:00,47.3,41.4,29.74,SE,135,5.1,5.1,80,0.00,CLR,,0.00,WeatherDisplay:10.37,2013-04-12 16:39:00,
2013-04-12 09:44:00,47.5,41.3,29.74,SW,225,0.0,0.0,79,0.00,CLR,,0.00,WeatherDisplay:10.37,2013-04-12 16:44:00,
2013-04-12 09:49:00,47.8,41.3,29.74,South,180,4.7,4.7,78,0.00,CLR,,0.00,WeatherDisplay:10.37,2013-04-12 16:49:00,
2013-04-12 09:54:00,47.8,41.3,29.74,SSE,158,4.6,4.9,78,0.00,CLR,,0.00,WeatherDisplay:10.37,2013-04-12 16:54:00,
2013-04-12 09:59:00,48.0,41.2,29.73,ENE,68,3.5,3.5,77,0.00,CLR,,0.00,WeatherDisplay:10.37,2013-04-12 16:59:00,
2013-04-12 10:04:00,48.4,41.5,29.74,SSE,158,2.3,2.3,77,0.00,CLR,,0.00,WeatherDisplay:10.37,2013-04-12 17:04:00,
2013-04-12 10:09:00,48.6,41.7,29.73,SSE,158,0.0,0.0,77,0.00,CLR,,0.00,WeatherDisplay:10.37,2013-04-12 17:09:00,
2013-04-12 10:14:00,48.7,41.2,29.73,ESE,112,0.0,0.0,75,0.00,CLR,,0.00,WeatherDisplay:10.37,2013-04-12 17:14:00,
2013-04-12 10:19:00,48.7,41.2,29.73,SE,135,0.0,0.0,75,0.00,CLR,,0.00,WeatherDisplay:10.37,2013-04-12 17:19:00,
2013-04-12 10:24:00,48.6,41.0,29.73,SSE,158,0.0,0.0,75,0.00,CLR,,0.00,WeatherDisplay:10.37,2013-04-12 17:24:00,
2013-04-12 10:29:00,48.4,40.8,29.73,SSE,158,0.0,0.0,75,0.00,CLR,,0.00,WeatherDisplay:10.37,2013-04-12 17:29:00,
2013-04-12 10:34:00,48.4,40.8,29.73,SSE,158,0.0,0.0,75,0.00,CLR,,0.00,WeatherDisplay:10.37,2013-04-12 17:34:00,
2013-04-12 10:39:00,48.0,40.5,29.72,SSE,158,0.0,0.0,75,0.00,CLR,,0.00,WeatherDisplay:10.37,2013-04-12 17:39:00,
2013-04-12 10:44:00,47.8,40.3,29.72,SSW,202,0.0,0.0,75,0.00,CLR,,0.00,WeatherDisplay:10.37,2013-04-12 17:44:00,
2013-04-12 10:49:00,47.7,40.1,29.72,South,180,0.0,0.0,75,0.00,CLR,,0.00,WeatherDisplay:10.37,2013-04-12 17:49:00,
2013-04-12 10:54:00,47.3,39.8,29.72,South,180,0.0,0.0,75,0.00,CLR,,0.00,WeatherDisplay:10.37,2013-04-12 17:54:00,
2013-04-12 11:00:00,47.3,39.8,29.72,South,180,0.0,0.0,75,0.00,CLR,,0.00,WeatherDisplay:10.37,2013-04-12 18:00:00,
2013-04-12 11:06:00,47.7,40.5,29.72,SSE,158,0.0,0.0,76,0.00,CLR,,0.00,WeatherDisplay:10.37,2013-04-12 18:06:00,
2013-04-12 11:11:00,48.0,40.5,29.72,South,180,0.0,0.0,75,0.00,CLR,,0.00,WeatherDisplay:10.37,2013-04-12 18:11:00,
2013-04-12 11:19:00,48.7,41.2,29.71,ESE,112,0.0,0.0,75,0.00,CLR,,0.00,WeatherDisplay:10.37,2013-04-12 18:19:00,
2013-04-12 11:25:00,48.7,40.8,29.71,WSW,248,0.0,0.0,74,0.00,CLR,,0.00,WeatherDisplay:10.37,2013-04-12 18:25:00,
2013-04-12 12:26:00,48.6,40.3,29.69,South,180,0.0,0.0,73,0.00,CLR,,0.00,WeatherDisplay:10.37,2013-04-12 19:26:00,
2013-04-12 12:27:00,48.4,40.1,29.69,SW,225,0.0,0.0,73,0.00,CLR,,0.00,WeatherDisplay:10.37,2013-04-12 19:27:00,
2013-04-12 12:28:00,48.4,40.1,29.69,SW,225,0.0,0.0,73,0.00,CLR,,0.00,WeatherDisplay:10.37,2013-04-12 19:28:00,
2013-04-12 12:33:00,48.2,39.9,29.69,ESE,112,0.0,0.0,73,0.00,CLR,,0.00,WeatherDisplay:10.37,2013-04-12 19:33:00,
2013-04-12 12:38:00,48.2,39.9,29.69,SE,135,0.0,0.0,73,0.00,CLR,,0.00,WeatherDisplay:10.37,2013-04-12 19:38:00,
2013-04-12 12:44:00,48.2,39.9,29.69,SE,135,0.0,0.0,73,0.00,CLR,,0.00,WeatherDisplay:10.37,2013-04-12 19:44:00,
2013-04-12 12:50:00,48.0,39.8,29.69,SE,135,0.0,0.0,73,0.00,CLR,,0.00,WeatherDisplay:10.37,2013-04-12 19:50:00,
2013-04-12 12:51:00,48.0,39.8,29.69,SE,135,0.0,0.0,73,0.00,CLR,,0.00,WeatherDisplay:10.37,2013-04-12 19:51:00,
2013-04-12 12:57:00,48.0,39.8,29.69,ENE,68,0.0,0.0,73,0.00,CLR,,0.00,WeatherDisplay:10.37,2013-04-12 19:57:00,
2013-04-12 13:03:00,47.8,39.6,29.68,SSE,158,0.0,0.0,73,0.00,CLR,,0.00,WeatherDisplay:10.37,2013-04-12 20:03:00,
2013-04-12 13:08:00,47.7,39.4,29.68,South,180,0.0,0.0,73,0.00,CLR,,0.00,WeatherDisplay:10.37,2013-04-12 20:08:00,
2013-04-12 13:13:00,47.5,39.6,29.67,South,180,0.0,0.0,74,0.00,CLR,,0.00,WeatherDisplay:10.37,2013-04-12 20:13:00,
2013-04-12 13:18:00,47.5,39.6,29.68,SE,135,0.0,0.0,74,0.00,CLR,,0.00,WeatherDisplay:10.37,2013-04-12 20:18:00,
2013-04-12 13:23:00,47.7,39.8,29.67,SW,225,2.3,0.0,74,0.00,CLR,,0.00,WeatherDisplay:10.37,2013-04-12 20:23:00,
2013-04-12 13:28:00,47.7,39.8,29.67,SSE,158,0.0,0.0,74,0.00,CLR,,0.00,WeatherDisplay:10.37,2013-04-12 20:28:00,
2013-04-12 13:33:00,47.7,40.1,29.67,SSE,158,0.0,0.0,75,0.00,CLR,,0.00,WeatherDisplay:10.37,2013-04-12 20:33:00,
2013-04-12 13:38:00,47.5,39.9,29.67,SSE,158,0.0,0.0,75,0.00,CLR,,0.00,WeatherDisplay:10.37,2013-04-12 20:38:00,
2013-04-12 13:43:00,47.3,39.8,29.67,SSW,202,0.0,0.0,75,0.00,CLR,,0.00,WeatherDisplay:10.37,2013-04-12 20:43:00,
2013-04-12 13:48:00,46.9,39.8,29.67,WSW,248,4.6,4.6,76,0.00,CLR,,0.00,WeatherDisplay:10.37,2013-04-12 20:48:00,
2013-04-12 13:53:00,46.4,39.2,29.67,West,270,0.0,0.0,76,0.00,CLR,,0.00,WeatherDisplay:10.37,2013-04-12 20:53:00,
2013-04-12 13:58:00,46.0,39.2,29.67,SSW,202,0.0,0.0,77,0.00,CLR,,0.00,WeatherDisplay:10.37,2013-04-12 20:58:00,
2013-04-12 14:03:00,45.5,39.0,29.67,WSW,248,0.0,0.0,78,0.02,RA,,0.02,WeatherDisplay:10.37,2013-04-12 21:03:00,
2013-04-12 14:08:00,45.3,39.2,29.66,WSW,248,0.0,0.0,79,0.02,RA,,0.02,WeatherDisplay:10.37,2013-04-12 21:08:00,
2013-04-12 14:13:00,45.1,39.3,29.66,East,90,0.0,0.0,80,0.02,,,0.02,WeatherDisplay:10.37,2013-04-12 21:13:00,
2013-04-12 14:18:00,44.8,39.3,29.66,SW,225,0.0,0.0,81,0.02,CLR,,0.02,WeatherDisplay:10.37,2013-04-12 21:18:00,
2013-04-12 14:23:00,44.8,39.6,29.66,South,180,2.3,0.0,82,0.02,CLR,,0.02,WeatherDisplay:10.37,2013-04-12 21:23:00,
2013-04-12 14:28:00,44.8,39.6,29.65,South,180,0.0,0.0,82,0.02,CLR,,0.02,WeatherDisplay:10.37,2013-04-12 21:28:00,
2013-04-12 14:33:00,44.8,39.9,29.65,SE,135,0.0,0.0,83,0.06,RA,,0.06,WeatherDisplay:10.37,2013-04-12 21:33:00,
2013-04-12 14:38:00,44.8,39.9,29.65,SW,225,2.3,0.0,83,0.06,RA,,0.06,WeatherDisplay:10.37,2013-04-12 21:38:00,
2013-04-12 14:43:00,44.4,39.9,29.65,WSW,248,0.0,0.0,84,0.06,CLR,,0.06,WeatherDisplay:10.37,2013-04-12 21:43:00,
2013-04-12 14:48:00,44.2,39.7,29.65,SW,225,0.0,0.0,84,0.06,CLR,,0.06,WeatherDisplay:10.37,2013-04-12 21:48:00,
2013-04-12 14:53:00,44.1,39.5,29.65,WSW,248,4.0,4.0,84,0.06,CLR,,0.06,WeatherDisplay:10.37,2013-04-12 21:53:00,
2013-04-12 14:58:00,44.1,39.8,29.65,WSW,248,0.0,0.0,85,0.10,RA,,0.10,WeatherDisplay:10.37,2013-04-12 21:58:00,
2013-04-12 15:03:00,43.9,39.7,29.64,SSE,158,0.0,0.0,85,0.08,RA,,0.10,WeatherDisplay:10.37,2013-04-12 22:03:00,
2013-04-12 15:08:00,43.7,39.5,29.64,SSE,158,0.0,0.0,85,0.08,CLR,,0.10,WeatherDisplay:10.37,2013-04-12 22:08:00,
2013-04-12 15:13:00,43.7,39.5,29.63,ENE,68,0.0,0.0,85,0.08,CLR,,0.10,WeatherDisplay:10.37,2013-04-12 22:13:00,
2013-04-12 15:18:00,43.5,39.6,29.63,ESE,112,0.0,0.0,86,0.08,CLR,,0.10,WeatherDisplay:10.37,2013-04-12 22:18:00,
2013-04-12 15:23:00,43.5,39.6,29.62,SE,135,0.0,0.0,86,0.12,RA,,0.14,WeatherDisplay:10.37,2013-04-12 22:23:00,
2013-04-12 15:28:00,43.5,39.6,29.62,South,180,0.0,0.0,86,0.12,RA,,0.14,WeatherDisplay:10.37,2013-04-12 22:28:00,
2013-04-12 15:33:00,43.5,39.6,29.62,SW,225,0.0,0.0,86,0.08,CLR,,0.14,WeatherDisplay:10.37,2013-04-12 22:33:00,
2013-04-12 15:38:00,43.5,39.9,29.62,ENE,68,0.0,0.0,87,0.08,CLR,,0.14,WeatherDisplay:10.37,2013-04-12 22:38:00,
2013-04-12 15:43:00,43.5,39.9,29.62,SE,135,0.0,0.0,87,0.08,CLR,,0.14,WeatherDisplay:10.37,2013-04-12 22:43:00,
2013-04-12 15:48:00,43.3,39.7,29.62,SSW,202,0.0,0.0,87,0.08,CLR,,0.14,WeatherDisplay:10.37,2013-04-12 22:48:00,
2013-04-12 15:53:00,43.3,39.7,29.61,East,90,0.0,0.0,87,0.08,CLR,,0.14,WeatherDisplay:10.37,2013-04-12 22:53:00,
2013-04-12 15:58:00,43.3,39.7,29.60,SSE,158,0.0,0.0,87,0.04,CLR,,0.14,WeatherDisplay:10.37,2013-04-12 22:58:00,
2013-04-12 16:03:00,43.3,40.0,29.60,SSW,202,0.0,0.0,88,0.04,CLR,,0.14,WeatherDisplay:10.37,2013-04-12 23:03:00,
2013-04-12 16:08:00,43.3,40.0,29.60,South,180,0.0,0.0,88,0.04,CLR,,0.14,WeatherDisplay:10.37,2013-04-12 23:08:00,
2013-04-12 16:13:00,43.3,40.0,29.60,South,180,0.0,0.0,88,0.08,RA,,0.18,WeatherDisplay:10.37,2013-04-12 23:13:00,
2013-04-12 16:18:00,43.2,39.8,29.59,SE,135,0.0,0.0,88,0.08,RA,,0.18,WeatherDisplay:10.37,2013-04-12 23:18:00,
2013-04-12 16:23:00,43.2,39.8,29.59,South,180,1.2,1.6,88,0.04,,,0.18,WeatherDisplay:10.37,2013-04-12 23:23:00,
2013-04-12 16:28:00,43.2,40.1,29.58,ENE,68,0.0,0.0,89,0.04,CLR,,0.18,WeatherDisplay:10.37,2013-04-12 23:28:00,
2013-04-12 16:33:00,43.0,40.0,29.58,South,180,3.5,3.5,89,0.04,CLR,,0.18,WeatherDisplay:10.37,2013-04-12 23:33:00,
2013-04-12 16:38:00,43.0,40.0,29.58,SSE,158,0.2,0.2,89,0.04,CLR,,0.18,WeatherDisplay:10.37,2013-04-12 23:38:00,
2013-04-12 16:43:00,42.6,39.6,29.58,SE,135,0.0,0.0,89,0.04,CLR,,0.18,WeatherDisplay:10.37,2013-04-12 23:43:00,
2013-04-12 16:48:00,42.6,39.6,29.58,SSE,158,0.0,0.0,89,0.04,CLR,,0.18,WeatherDisplay:10.37,2013-04-12 23:48:00,
2013-04-12 16:53:00,42.6,39.6,29.58,West,270,0.0,0.0,89,0.04,CLR,,0.18,WeatherDisplay:10.37,2013-04-12 23:53:00,
2013-04-12 16:58:00,42.6,39.6,29.58,South,180,0.0,0.0,89,0.04,CLR,,0.18,WeatherDisplay:10.37,2013-04-12 23:58:00,
2013-04-12 17:03:00,42.6,39.6,29.57,South,180,0.0,0.0,89,0.04,CLR,,0.18,WeatherDisplay:10.37,2013-04-13 00:03:00,
2013-04-12 17:08:00,42.6,39.6,29.57,SSE,158,0.0,0.0,89,0.04,CLR,,0.18,WeatherDisplay:10.37,2013-04-13 00:08:00,
2013-04-12 17:13:00,42.6,39.6,29.57,ENE,68,0.0,0.0,89,0.04,RA,,0.22,WeatherDisplay:10.37,2013-04-13 00:13:00,
2013-04-12 17:18:00,42.4,39.4,29.57,SSE,158,0.0,0.0,89,0.04,RA,,0.22,WeatherDisplay:10.37,2013-04-13 00:18:00,
2013-04-12 17:23:00,42.4,39.4,29.56,South,180,1.2,0.0,89,0.04,,,0.22,WeatherDisplay:10.37,2013-04-13 00:23:00,
2013-04-12 17:28:00,42.4,39.4,29.55,SE,135,2.3,2.3,89,0.04,CLR,,0.22,WeatherDisplay:10.37,2013-04-13 00:28:00,
2013-04-12 17:33:00,42.4,39.4,29.56,SE,135,0.0,0.0,89,0.04,CLR,,0.22,WeatherDisplay:10.37,2013-04-13 00:33:00,
2013-04-12 17:38:00,42.4,39.4,29.55,ESE,112,0.0,0.0,89,0.04,CLR,,0.22,WeatherDisplay:10.37,2013-04-13 00:38:00,
2013-04-12 17:43:00,42.4,39.7,29.55,SSE,158,0.0,0.0,90,0.04,CLR,,0.22,WeatherDisplay:10.37,2013-04-13 00:43:00,
2013-04-12 17:48:00,42.4,39.7,29.55,South,180,0.0,0.0,90,0.04,CLR,,0.22,WeatherDisplay:10.37,2013-04-13 00:48:00,
2013-04-12 17:53:00,42.4,39.7,29.55,SE,135,0.0,0.0,90,0.04,CLR,,0.22,WeatherDisplay:10.37,2013-04-13 00:53:00,
2013-04-12 17:58:00,42.4,39.7,29.54,SE,135,0.0,0.0,90,0.08,RA,,0.26,WeatherDisplay:10.37,2013-04-13 00:58:00,
2013-04-12 18:03:00,42.4,39.7,29.54,ENE,68,0.0,0.0,90,0.08,RA,,0.26,WeatherDisplay:10.37,2013-04-13 01:03:00,
2013-04-12 18:08:00,42.1,39.4,29.54,SE,135,0.0,0.0,90,0.08,CLR,,0.26,WeatherDisplay:10.37,2013-04-13 01:08:00,
2013-04-12 18:13:00,42.1,39.4,29.54,SE,135,0.0,0.0,90,0.04,CLR,,0.26,WeatherDisplay:10.37,2013-04-13 01:13:00,
2013-04-12 18:18:00,42.1,39.4,29.54,SSE,158,0.0,0.0,90,0.04,CLR,,0.26,WeatherDisplay:10.37,2013-04-13 01:18:00,
2013-04-12 18:23:00,42.1,39.4,29.54,SSE,158,0.0,0.0,90,0.04,CLR,,0.26,WeatherDisplay:10.37,2013-04-13 01:23:00,
2013-04-12 18:28:00,42.1,39.6,29.54,SSE,158,0.0,0.0,91,0.04,CLR,,0.26,WeatherDisplay:10.37,2013-04-13 01:28:00,
2013-04-12 18:33:00,42.1,39.6,29.53,South,180,0.0,0.0,91,0.04,CLR,,0.26,WeatherDisplay:10.37,2013-04-13 01:33:00,
2013-04-12 18:38:00,42.1,39.6,29.53,South,180,0.0,0.0,91,0.06,RA,,0.28,WeatherDisplay:10.37,2013-04-13 01:38:00,
2013-04-12 18:43:00,42.1,39.6,29.53,ESE,112,0.0,0.0,91,0.06,RA,,0.28,WeatherDisplay:10.37,2013-04-13 01:43:00,
2013-04-12 18:48:00,42.1,39.6,29.53,East,90,0.0,0.0,91,0.06,,,0.28,WeatherDisplay:10.37,2013-04-13 01:48:00,
2013-04-12 18:53:00,42.1,39.6,29.52,SE,135,0.0,0.0,91,0.06,CLR,,0.28,WeatherDisplay:10.37,2013-04-13 01:53:00,
2013-04-12 18:58:00,42.1,39.6,29.52,SE,135,0.0,0.0,91,0.02,CLR,,0.28,WeatherDisplay:10.37,2013-04-13 01:58:00,
2013-04-12 19:03:00,42.1,39.6,29.52,SE,135,0.0,0.0,91,0.06,RA,,0.32,WeatherDisplay:10.37,2013-04-13 02:03:00,
2013-04-12 19:08:00,42.1,39.6,29.52,ESE,112,0.0,0.0,91,0.06,RA,,0.32,WeatherDisplay:10.37,2013-04-13 02:08:00,
2013-04-12 19:13:00,41.9,39.5,29.51,ESE,112,0.0,0.0,91,0.06,,,0.32,WeatherDisplay:10.37,2013-04-13 02:13:00,
2013-04-12 19:18:00,42.1,39.6,29.51,NE,45,0.0,0.0,91,0.06,CLR,,0.32,WeatherDisplay:10.37,2013-04-13 02:18:00,
2013-04-12 19:23:00,41.9,39.5,29.51,ENE,68,0.0,0.0,91,0.06,CLR,,0.32,WeatherDisplay:10.37,2013-04-13 02:23:00,
2013-04-12 19:28:00,41.7,39.3,29.50,ENE,68,0.0,0.0,91,0.06,CLR,,0.32,WeatherDisplay:10.37,2013-04-13 02:28:00,
2013-04-12 19:33:00,41.7,39.3,29.50,ENE,68,0.0,0.0,91,0.06,CLR,,0.32,WeatherDisplay:10.37,2013-04-13 02:33:00,
2013-04-12 19:38:00,41.7,39.3,29.50,ENE,68,0.0,0.0,91,0.06,RA,,0.34,WeatherDisplay:10.37,2013-04-13 02:38:00,
2013-04-12 19:43:00,41.7,39.3,29.49,SE,135,0.0,0.0,91,0.06,RA,,0.34,WeatherDisplay:10.37,2013-04-13 02:43:00,
2013-04-12 19:48:00,41.7,39.3,29.49,SE,135,0.0,0.0,91,0.06,,,0.34,WeatherDisplay:10.37,2013-04-13 02:48:00,
2013-04-12 19:53:00,41.7,39.3,29.49,SSE,158,0.0,0.0,91,0.06,CLR,,0.34,WeatherDisplay:10.37,2013-04-13 02:53:00,
2013-04-12 19:58:00,41.7,39.3,29.49,SSE,158,0.0,0.0,91,0.06,CLR,,0.34,WeatherDisplay:10.37,2013-04-13 02:58:00,
2013-04-12 20:03:00,41.7,39.3,29.48,East,90,0.0,0.0,91,0.02,CLR,,0.34,WeatherDisplay:10.37,2013-04-13 03:03:00,
2013-04-12 20:08:00,41.5,39.1,29.48,East,90,0.0,0.0,91,0.02,CLR,,0.34,WeatherDisplay:10.37,2013-04-13 03:08:00,
2013-04-12 20:13:00,41.5,39.1,29.48,SSE,158,0.0,0.0,91,0.06,RA,,0.38,WeatherDisplay:10.37,2013-04-13 03:13:00,
2013-04-12 20:18:00,41.5,39.1,29.47,SSE,158,0.0,0.0,91,0.06,RA,,0.38,WeatherDisplay:10.37,2013-04-13 03:18:00,
2013-04-12 20:23:00,41.5,39.4,29.47,East,90,0.0,0.0,92,0.06,,,0.38,WeatherDisplay:10.37,2013-04-13 03:23:00,
2013-04-12 20:28:00,41.5,39.4,29.47,SSE,158,0.0,0.0,92,0.06,CLR,,0.38,WeatherDisplay:10.37,2013-04-13 03:28:00,
2013-04-12 20:33:00,41.5,39.4,29.47,SSE,158,1.2,1.2,92,0.06,CLR,,0.38,WeatherDisplay:10.37,2013-04-13 03:33:00,
2013-04-12 20:38:00,41.5,39.4,29.47,SSE,158,0.0,0.0,92,0.04,CLR,,0.38,WeatherDisplay:10.37,2013-04-13 03:38:00,
2013-04-12 20:43:00,41.5,39.4,29.47,SE,135,4.6,4.6,92,0.04,CLR,,0.38,WeatherDisplay:10.37,2013-04-13 03:43:00,
2013-04-12 20:48:00,41.5,39.4,29.47,SE,135,0.0,0.0,92,0.04,CLR,,0.38,WeatherDisplay:10.37,2013-04-13 03:48:00,
2013-04-12 20:53:00,41.5,39.7,29.46,SSE,158,0.0,0.0,93,0.04,CLR,,0.38,WeatherDisplay:10.37,2013-04-13 03:53:00,
2013-04-12 20:59:00,41.5,39.7,29.46,ENE,68,3.5,3.5,93,0.06,RA,,0.40,WeatherDisplay:10.37,2013-04-13 03:59:00,
2013-04-12 21:00:00,41.5,39.7,29.46,ENE,68,3.5,3.5,93,0.06,RA,,0.40,WeatherDisplay:10.37,2013-04-13 04:00:00,
2013-04-12 21:02:00,41.5,39.7,29.46,East,90,0.0,0.0,93,0.06,RA,,0.40,WeatherDisplay:10.37,2013-04-13 04:02:00,
2013-04-12 21:03:00,41.5,39.7,29.45,SSE,158,2.5,2.5,93,0.06,RA,,0.40,WeatherDisplay:10.37,2013-04-13 04:03:00,
2013-04-12 21:05:00,41.5,39.7,29.45,ESE,112,2.3,2.3,93,0.06,,,0.40,WeatherDisplay:10.37,2013-04-13 04:05:00,
2013-04-12 21:10:00,41.5,39.7,29.45,SSE,158,0.0,0.0,93,0.06,CLR,,0.40,WeatherDisplay:10.37,2013-04-13 04:10:00,
2013-04-12 21:15:00,41.7,39.8,29.45,SSE,158,0.0,0.0,93,0.02,CLR,,0.40,WeatherDisplay:10.37,2013-04-13 04:15:00,
2013-04-12 21:20:00,41.7,39.8,29.45,South,180,4.7,4.7,93,0.06,RA,,0.44,WeatherDisplay:10.37,2013-04-13 04:20:00,
2013-04-12 21:25:00,41.7,39.8,29.45,SSE,158,0.0,0.0,93,0.06,RA,,0.44,WeatherDisplay:10.37,2013-04-13 04:25:00,
2013-04-12 21:30:00,41.7,39.8,29.44,SE,135,0.0,0.0,93,0.06,,,0.44,WeatherDisplay:10.37,2013-04-13 04:30:00,
2013-04-12 21:35:00,41.7,39.8,29.44,South,180,3.5,3.5,93,0.06,CLR,,0.44,WeatherDisplay:10.37,2013-04-13 04:35:00,
2013-04-12 21:40:00,41.7,39.8,29.44,SSE,158,2.3,0.0,93,0.06,CLR,,0.44,WeatherDisplay:10.37,2013-04-13 04:40:00,
2013-04-12 21:45:00,41.9,40.0,29.44,ENE,68,0.0,0.0,93,0.06,CLR,,0.44,WeatherDisplay:10.37,2013-04-13 04:45:00,
2013-04-12 21:50:00,41.9,40.0,29.44,South,180,0.0,0.0,93,0.06,CLR,,0.44,WeatherDisplay:10.37,2013-04-13 04:50:00,
2013-04-12 21:55:00,42.1,40.2,29.44,East,90,0.0,0.0,93,0.04,CLR,,0.44,WeatherDisplay:10.37,2013-04-13 04:55:00,
2013-04-12 22:00:00,42.1,40.2,29.44,ENE,68,0.0,0.0,93,0.04,CLR,,0.44,WeatherDisplay:10.37,2013-04-13 05:00:00,
2013-04-12 22:05:00,42.4,40.6,29.44,ESE,112,4.6,4.6,93,0.04,CLR,,0.44,WeatherDisplay:10.37,2013-04-13 05:05:00,
2013-04-12 22:10:00,42.4,40.6,29.44,SSW,202,0.0,0.0,93,0.04,CLR,,0.44,WeatherDisplay:10.37,2013-04-13 05:10:00,
2013-04-12 22:15:00,42.4,40.8,29.43,East,90,0.0,0.0,94,0.04,CLR,,0.44,WeatherDisplay:10.37,2013-04-13 05:15:00,
2013-04-12 22:20:00,42.6,41.0,29.44,SSE,158,11.5,11.5,94,0.00,CLR,,0.44,WeatherDisplay:10.37,2013-04-13 05:20:00,
2013-04-12 22:25:00,42.6,41.0,29.44,SE,135,9.6,9.6,94,0.00,CLR,,0.44,WeatherDisplay:10.37,2013-04-13 05:25:00,
2013-04-12 22:30:00,43.0,41.4,29.44,NNE,22,6.9,6.9,94,0.00,CLR,,0.44,WeatherDisplay:10.37,2013-04-13 05:30:00,
2013-04-12 22:35:00,43.0,41.4,29.44,NE,45,0.0,0.0,94,0.00,CLR,,0.44,WeatherDisplay:10.37,2013-04-13 05:35:00,
2013-04-12 22:40:00,43.0,41.4,29.45,SW,225,5.8,5.8,94,0.00,CLR,,0.44,WeatherDisplay:10.37,2013-04-13 05:40:00,
2013-04-12 22:45:00,43.0,41.4,29.45,West,270,1.1,0.0,94,0.00,CLR,,0.44,WeatherDisplay:10.37,2013-04-13 05:45:00,
2013-04-12 22:50:00,43.0,41.4,29.45,SSW,202,4.6,4.6,94,0.00,CLR,,0.44,WeatherDisplay:10.37,2013-04-13 05:50:00,
2013-04-12 22:55:00,42.6,41.0,29.46,South,180,0.0,0.0,94,0.00,CLR,,0.44,WeatherDisplay:10.37,2013-04-13 05:55:00,
2013-04-12 23:00:00,42.6,41.0,29.47,SSE,158,0.0,0.0,94,0.00,CLR,,0.44,WeatherDisplay:10.37,2013-04-13 06:00:00,
2013-04-12 23:05:00,42.3,40.4,29.47,SSE,158,2.7,2.7,93,0.00,CLR,,0.44,WeatherDisplay:10.37,2013-04-13 06:05:00,
2013-04-12 23:10:00,42.1,40.2,29.47,ESE,112,8.1,0.0,93,0.00,CLR,,0.44,WeatherDisplay:10.37,2013-04-13 06:10:00,
2013-04-12 23:15:00,41.7,39.8,29.48,SE,135,1.2,1.2,93,0.00,CLR,,0.44,WeatherDisplay:10.37,2013-04-13 06:15:00,
2013-04-12 23:20:00,41.5,39.7,29.48,South,180,4.6,4.6,93,0.00,CLR,,0.44,WeatherDisplay:10.37,2013-04-13 06:20:00,
2013-04-12 23:25:00,41.5,39.7,29.49,SSW,202,4.6,4.7,93,0.00,CLR,,0.44,WeatherDisplay:10.37,2013-04-13 06:25:00,
2013-04-12 23:30:00,41.4,39.5,29.49,NE,45,0.0,0.0,93,0.00,CLR,,0.44,WeatherDisplay:10.37,2013-04-13 06:30:00,
2013-04-12 23:35:00,41.0,38.9,29.50,South,180,5.8,5.8,92,0.00,CLR,,0.44,WeatherDisplay:10.37,2013-04-13 06:35:00,
2013-04-12 23:40:00,41.0,38.9,29.50,East,90,4.6,0.0,92,0.00,CLR,,0.44,WeatherDisplay:10.37,2013-04-13 06:40:00,
2013-04-12 23:45:00,40.8,38.7,29.50,SE,135,0.0,0.0,92,0.00,CLR,,0.44,WeatherDisplay:10.37,2013-04-13 06:45:00,
2013-04-12 23:51:00,40.8,38.4,29.50,SE,135,0.0,0.0,91,0.00,CLR,,0.44,WeatherDisplay:10.37,2013-04-13 06:51:00,
2013-04-12 23:56:00,40.3,37.9,29.50,WSW,248,0.0,0.0,91,0.00,CLR,,0.44,WeatherDisplay:10.37,2013-04-13 06:56:00,